| Station | Date | Time | Temp (°F) | WindChill (°F) | RH (%) | Dew Pt (°F) | Wind Dir (°) | Wind Spd (mph) | Wind Gust (mph) | Solar Rad (W/m2) | Pressure (mb) | Daily Min Temp (°F) | Daily Max Temp (°F) | Daily Max Wind (mph) | Daily Rain (In) | Yest MinT (°F) | Yest MaxT (°F) | Yest MaxGst (mph) | Yest Precip (In) | MinBV Day (V) |
|---|---|---|---|---|---|---|---|---|---|---|---|---|---|---|---|---|---|---|---|---|
| MWA Office | 5/5/26 | 2030 | 52.9 1.1 | - | 61 8 | 39.8 2.1 | SW | 234 | 6.8 5.1 | 13.8 8.5 | 0 0 | 1,014.7 0.8 | 47.8 0.1 | 65.5 2.5 | 23.0 9.4 | 0.00 | 48.0 | 62.9 | 32.4 | 0.00 | 12.5 0.1 |
| MWA OPS | 5/5/26 | 2030 | 51.8 0.6 | - | 65 8 | 40.4 2.4 | SW | 228 | 8.1 3.1 | 13.4 5.5 | 0 0 | 1,014.7 1.2 | 47.0 0.5 | 62.4 1.5 | 24.6 7.4 | 0.00 | 47.4 | 60.9 | 32.0 | 0.00 | 12.7 0.0 |
| LV-PS | 5/5/26 | 2030 | 57.3 1.0 | - | 50 9 | 38.9 5.9 | W | 272 | 10.6 0.9 | 17.8 0.2 | 0 0 | 1,012.5 1.7 | 47.0 2.9 | 66.3 3.7 | 28.1 0.4 | 0.00 | 50.0 | 69.9 | 28.5 | 0.00 | 12.7 0.1 |
| JV-PS | 5/5/26 | 2030 | 59.1 2.0 | - | 47 7 | 38.9 6.1 | W | 275 | 11.8 1.6 | 19.5 0.7 | 0 0 | 1,011.5 1.6 | 46.8 4.3 | 67.6 1.2 | 21.3 6.6 | 0.00 | 51.1 | 68.8 | 27.8 | 0.00 | 12.9 0.0 |
| BDVWA | 5/5/26 | 2030 | 57.0 3.7 | - | 46 2 | 36.7 2.1 | NW | 307 | 8.8 0.3 | 13.8 2.4 | 0 0 | 1,010.9 0.8 | 41.4 5.5 | 63.9 2.1 | 18.8 1.3 | 0.00 | 46.5 | 66.0 | 20.2 | 0.00 | 12.8 0.1 |
| Newberry Springs | 5/5/26 | 2030 | 64.6 2.2 | - | 42 0 | 41.0 2.3 | N | 354 | 17.1 0.3 | 29.2 4.8 | 0 0 | 1,010.5 1.0 | 54.4 2.9 | 73.5 0.1 | 30.9 3.9 | 0.00 | 57.4 | 73.6 | 34.8 | 0.00 | 12.8 0.0 |
| Pinon Hills | 5/5/26 | 2030 | 45.5 0.6 | - | 70 3 | 36.2 0.6 | WSW | 246 | 2.1 2.8 | 5.5 7.2 | 0 0 | 1,015.1 1.9 | 38.7 1.9 | 55.7 1.2 | 21.5 13.4 | 0.00 | 36.8 | 56.9 | 34.8 | 0.00 | 12.8 0.0 |
| Helendale | 5/5/26 | 2030 | 57.6 0.3 | - | 56 7 | 42.2 3.3 | WSW | 237 | 14.3 2.1 | 23.7 2.9 | 0 0 | 1,012.5 1.2 | 46.6 1.5 | 69.8 0.1 | 27.0 11.2 | 0.00 | 48.2 | 69.7 | 38.1 | 0.00 | 12.7 0.0 |
| Lenwood | 5/5/26 | 2030 | 59.9 0.2 | - | 50 6 | 41.4 3.5 | SW | 228 | 11.0 2.8 | 21.3 2.8 | 0 0 | 1,012.2 1.3 | 48.9 1.6 | 71.0 0.4 | 25.6 4.8 | 0.00 | 50.5 | 70.6 | 30.5 | 0.00 | 12.7 0.0 |
| Oak Hills | 5/5/26 | 2030 | 43.8 0.4 | 39.0 1.8 | 84 5 | 39.4 1.2 | SSW | 204 | 5.9 0.2 | 11.2 7.0 | 0 0 | 1,016.4 1.8 | 41.5 1.3 | 55.2 0.9 | 24.6 5.9 | 0.00 | 40.2 | 56.1 | 30.5 | 0.00 | 12.9 0.0 |
| Pipes Wash Canyon | 5/5/26 | 2030 | 51.4 1.8 | - | 47 1 | 31.7 1.1 | WNW | 292 | 1.9 0.5 | 5.7 0.9 | 0 0 | 1,011.6 1.2 | 37.8 5.9 | 58.0 4.9 | 15.8 2.2 | 0.00 | 40.0 | 63.0 | 18.0 | 0.00 | 12.8 0.0 |
| Max | 64.6 | - | 84 | 42.2 | - | 17.1 | 29.2 | 0 | 1,016.4 | 54.4 | 73.5 | 30.9 | 0.00 | 57.4 | 73.6 | 38.1 | 0.00 | 12.9 | ||
| Avg | 54.6 | - | 56 | 38.8 | - | 8.9 | 15.9 | 0 | 1,013.0 | - | - | - | - | - | - | - | - | - | ||
| Min | 43.8 | - | 42 | 31.7 | - | 1.9 | 5.5 | 0 | 1,010.5 | 37.8 | 55.2 | 15.8 | 0.00 | 36.8 | 56.1 | 18.0 | 0.00 | 12.5 |
| Station | Date | Time | Latest Rain (In) | Daily Rain (In) | Yest Precip (In) | Month Precip (In) | Season Precip (In) | Daily ETo (in) | Yest ETo (In) | 7 Day ETo (in) |
|---|---|---|---|---|---|---|---|---|---|---|
| MWA Office | 5/5/26 | 2030 | 0.00 | 0.00 | 0.00 | 0.00 | 4.30 | 0.171 | 0.19 | 1.59 |
| MWA OPS | 5/5/26 | 2030 | 0.00 | 0.00 | 0.00 | 0.00 | 9.32 | 0.168 | 0.18 | 1.62 |
| LV-PS | 5/5/26 | 2030 | 0.00 | 0.00 | 0.00 | 0.00 | 3.63 | 0.207 | 0.23 | 1.76 |
| JV-PS | 5/5/26 | 2030 | 0.00 | 0.00 | 0.00 | 0.00 | 6.38 | 0.186 | 0.22 | 1.82 |
| BDVWA | 5/5/26 | 2030 | 0.00 | 0.00 | 0.00 | 0.00 | 6.35 | 0.144 | 0.18 | 1.82 |
| Newberry Springs | 5/5/26 | 2030 | 0.00 | 0.00 | 0.00 | 0.00 | 2.70 | 0.243 | 0.28 | 1.94 |
| Pinon Hills | 5/5/26 | 2030 | 0.00 | 0.00 | 0.00 | 0.00 | 15.51 | 0.114 | 0.17 | 1.54 |
| Helendale | 5/5/26 | 2030 | 0.00 | 0.00 | 0.00 | 0.00 | 5.55 | 0.181 | 0.24 | 1.75 |
| Lenwood | 5/5/26 | 2030 | 0.00 | 0.00 | 0.00 | 0.00 | 4.24 | 0.201 | 0.25 | 1.82 |
| Oak Hills | 5/5/26 | 2030 | 0.00 | 0.00 | 0.00 | 0.00 | 14.72 | 0.126 | 0.14 | 1.41 |
| Pipes Wash Canyon | 5/5/26 | 2030 | 0.00 | 0.00 | 0.00 | 0.00 | 13.92 | 0.122 | 0.16 | 1.56 |
| Max | 0.00 | 0.00 | 0.00 | 0.00 | 15.51 | 0.243 | 0.28 | 1.94 | ||
| Avg | 0.00 | - | - | - | - | - | - | - | ||
| Min | 0.00 | 0.00 | 0.00 | 0.00 | 2.70 | 0.114 | 0.14 | 1.41 |